LYBE - BEOGRAD / NIKOLA TESLA

Compiled: 11:33:03 on 21/04/2018

Latest METAR/SPECI Reports

METAR LYBE 211100Z 22003KT 160V320 CAVOK 21/07 Q1022 NOSIG=

Previous reports

METAR LYBE 211030Z VRB01KT CAVOK 21/07 Q1022 NOSIG=
METAR LYBE 211000Z VRB03KT CAVOK 20/06 Q1022 NOSIG=
METAR LYBE 210930Z 24004KT 200V300 CAVOK 20/07 Q1023 NOSIG=
METAR LYBE 210900Z VRB03KT CAVOK 19/08 Q1023 NOSIG=

Latest TAF report

TAF LYBE 211100Z 2112/2212 19005KT CAVOK TX24/2113Z TN10/2204Z=

Valid WARNINGS

No valid warnings for LYBE